Flight Track Log - Related Links

Times and Time Zones

All times are in EDT time to prevent confusion due to time zone crossing. See the CSZ9957 flight status page for this flight to view local times or setup timezone preferences in your user account.

Time Position Orientation Groundspeed Altitude Reporting Facility
EDT Latitude Longitude Course Direction KTS MPH feet Rate Location/Type
Thu 07:30:00 PM 23.3487 113.6806 350° North  Level Estimated
Thu 07:31:00 PM 23.4669 113.6585 350° North  Level Estimated
Thu 07:32:00 PM 23.5851 113.6363 350° North  Level Estimated
Thu 07:33:00 PM 23.7032 113.6141 350° North  Level Estimated
Thu 07:34:00 PM 23.8214 113.5919 350° North  Level Estimated
Thu 07:35:00 PM 23.9396 113.5696 350° North  Level Estimated
Thu 07:36:00 PM 24.0578 113.5473 350° North  Level Estimated
Thu 07:37:00 PM 24.1759 113.5250 350° North  Level Estimated
Thu 07:38:00 PM 24.2941 113.5026 350° North  Level Estimated
Thu 07:39:00 PM 24.4123 113.4801 350° North  Level Estimated
Thu 07:40:00 PM 24.5304 113.4577 350° North  Level Estimated
Thu 07:41:00 PM 24.6486 113.4352 350° North  Level Estimated
Thu 07:42:00 PM 24.7668 113.4126 350° North  Level Estimated
Thu 07:43:00 PM 24.8849 113.3900 350° North  Level Estimated
Thu 07:44:00 PM 25.0031 113.3673 350° North  Level Estimated
Thu 07:45:00 PM 25.1212 113.3447 350° North  Level Estimated
Thu 07:46:00 PM 25.2393 113.3219 350° North  Level Estimated
Thu 07:47:00 PM 25.3575 113.2991 350° North  Level Estimated
Thu 07:48:00 PM 25.4756 113.2763 350° North  Level Estimated
Thu 07:49:00 PM 25.5937 113.2534 350° North  Level Estimated
Thu 07:50:00 PM 25.7119 113.2305 350° North  Level Estimated
Thu 07:51:00 PM 25.8300 113.2076 350° North  Level Estimated
Thu 07:52:00 PM 25.9481 113.1846 350° North  Level Estimated
Thu 07:53:00 PM 26.0662 113.1615 350° North  Level Estimated
Thu 07:54:00 PM 26.1843 113.1384 350° North  Level Estimated
Thu 07:55:00 PM 26.3025 113.1153 350° North  Level Estimated
Thu 07:56:00 PM 26.4206 113.0921 350° North  Level Estimated
Thu 07:57:00 PM 26.5387 113.0688 350° North  Level Estimated
Thu 07:58:00 PM 26.6568 113.0456 350° North  Level Estimated
Thu 07:59:00 PM 26.7749 113.0222 350° North  Level Estimated
Thu 08:00:00 PM 26.8929 112.9988 350° North  Level Estimated
Thu 08:01:00 PM 27.0110 112.9754 350° North  Level Estimated
Thu 08:02:00 PM 27.1291 112.9519 350° North  Level Estimated
Thu 08:03:00 PM 27.2472 112.9284 350° North  Level Estimated
Thu 08:04:00 PM 27.3653 112.9048 350° North  Level Estimated
Thu 08:05:00 PM 27.4833 112.8812 350° North  Level Estimated
Thu 08:06:00 PM 27.6014 112.8575 350° North  Level Estimated
Thu 08:07:00 PM 27.7195 112.8338 350° North  Level Estimated
Thu 08:08:00 PM 27.8375 112.8100 350° North  Level Estimated
Thu 08:09:00 PM 27.9556 112.7861 350° North  Level Estimated
Thu 08:10:00 PM 28.0736 112.7623 350° North  Level Estimated
Thu 08:11:00 PM 28.1917 112.7383 350° North  Level Estimated
Thu 08:12:00 PM 28.3097 112.7143 350° North  Level Estimated
Thu 08:13:00 PM 28.4277 112.6903 350° North  Level Estimated
Thu 08:14:00 PM 28.5458 112.6662 350° North  Level Estimated
Thu 08:15:00 PM 28.6638 112.6420 350° North  Level Estimated
Thu 08:16:00 PM 28.7818 112.6178 350° North  Level Estimated
Thu 08:17:00 PM 28.8999 112.5935 350° North  Level Estimated
Thu 08:18:00 PM 29.0179 112.5692 350° North  Level Estimated
Thu 08:19:00 PM 29.1359 112.5448 350° North  Level Estimated
Thu 08:20:00 PM 29.2539 112.5204 350° North  Level Estimated
Thu 08:21:00 PM 29.3719 112.4959 350° North  Level Estimated
Thu 08:22:00 PM 29.4899 112.4714 350° North  Level Estimated
Thu 08:23:00 PM 29.6079 112.4468 350° North  Level Estimated
Thu 08:24:00 PM 29.7259 112.4221 350° North  Level Estimated
Thu 08:25:00 PM 29.8439 112.3974 350° North  Level Estimated
Thu 08:26:00 PM 29.9618 112.3726 350° North  Level Estimated
Thu 08:27:00 PM 30.0798 112.3478 350° North  Level Estimated
Thu 08:28:00 PM 30.1978 112.3229 350° North  Level Estimated
Thu 08:29:00 PM 30.3158 112.2979 350° North  Level Estimated
Thu 08:30:00 PM 30.4337 112.2729 350° North  Level Estimated
Thu 08:31:00 PM 30.5517 112.2478 350° North  Level Estimated
Thu 08:32:00 PM 30.6696 112.2227 350° North  Level Estimated
Thu 08:33:00 PM 30.7876 112.1975 350° North  Level Estimated
Thu 08:34:00 PM 30.9055 112.1722 350° North  Level Estimated
Thu 08:35:00 PM 31.0235 112.1469 350° North  Level Estimated
Thu 08:36:00 PM 31.1414 112.1215 350° North  Level Estimated
Thu 08:37:00 PM 31.2593 112.0960 350° North  Level Estimated
Thu 08:38:00 PM 31.3772 112.0705 350° North  Level Estimated
Thu 08:39:00 PM 31.4952 112.0450 350° North  Level Estimated
Thu 08:40:00 PM 31.6131 112.0193 350° North  Level Estimated
Thu 08:41:00 PM 31.7310 111.9936 349° North  Level Estimated
Thu 08:42:00 PM 31.8489 111.9678 349° North  Level Estimated
Thu 08:43:00 PM 31.9668 111.9420 349° North  Level Estimated
Thu 08:44:00 PM 32.0847 111.9161 349° North  Level Estimated
Thu 08:45:00 PM 32.2026 111.8901 349° North  Level Estimated
Thu 08:46:00 PM 32.3204 111.8641 349° North  Level Estimated
Thu 08:47:00 PM 32.4383 111.8380 349° North  Level Estimated
Thu 08:48:00 PM 32.5562 111.8118 349° North  Level Estimated
Thu 08:49:00 PM 32.6740 111.7856 349° North  Level Estimated
Thu 08:50:00 PM 32.7919 111.7593 349° North  Level Estimated
Thu 08:51:00 PM 32.9098 111.7329 349° North  Level Estimated
Thu 08:52:00 PM 33.0276 111.7064 349° North  Level Estimated
Thu 08:53:00 PM 33.1455 111.6799 349° North  Level Estimated
Thu 08:54:00 PM 33.2633 111.6533 349° North  Level Estimated
Thu 08:55:00 PM 33.3811 111.6266 349° North  Level Estimated
Thu 08:56:00 PM 33.4990 111.5999 349° North  Level Estimated
Thu 08:57:00 PM 33.6168 111.5731 349° North  Level Estimated
Thu 08:58:00 PM 33.7346 111.5462 349° North  Level Estimated
Thu 08:59:00 PM 33.8524 111.5192 349° North  Level Estimated
Thu 09:00:00 PM 33.9702 111.4922 349° North  Level Estimated
Thu 09:01:00 PM 34.0880 111.4651 349° North  Level Estimated
Thu 09:02:00 PM 34.2058 111.4379 349° North  Level Estimated
Thu 09:03:00 PM 34.3236 111.4107 349° North  Level Estimated
Thu 09:04:00 PM 34.4413 111.3833 349° North  Level Estimated
Thu 09:05:00 PM 34.5591 111.3559 349° North  Level Estimated
Thu 09:06:00 PM 34.6769 111.3284 349° North  Level Estimated
Thu 09:07:00 PM 34.7946 111.3009 349° North  Level Estimated
Thu 09:08:00 PM 34.9124 111.2732 349° North  Level Estimated
Thu 09:09:00 PM 35.0301 111.2455 349° North  Level Estimated
Thu 09:10:00 PM 35.1479 111.2177 349° North  Level Estimated
Thu 09:11:00 PM 35.2656 111.1898 349° North  Level Estimated
Thu 09:12:00 PM 35.3833 111.1618 349° North  Level Estimated
Thu 09:13:00 PM 35.5011 111.1338 349° North  Level Estimated
Thu 09:14:00 PM 35.6188 111.1056 349° North  Level Estimated
Thu 09:15:00 PM 35.7365 111.0774 349° North  Level Estimated
Thu 09:16:00 PM 35.8542 111.0491 349° North  Level Estimated
Thu 09:17:00 PM 35.9719 111.0207 349° North  Level Estimated
Thu 09:18:00 PM 36.0896 110.9922 349° North  Level Estimated
Thu 09:19:00 PM 36.2073 110.9637 349° North  Level Estimated
Thu 09:20:00 PM 36.3249 110.9351 349° North  Level Estimated
Thu 09:21:00 PM 36.4426 110.9063 349° North  Level Estimated
Thu 09:22:00 PM 36.5603 110.8775 349° North  Level Estimated
Thu 09:23:00 PM 36.6779 110.8486 349° North  Level Estimated
Thu 09:24:00 PM 36.7956 110.8196 349° North  Level Estimated
Thu 09:25:00 PM 36.9132 110.7905 349° North  Level Estimated
Thu 09:26:00 PM 37.0308 110.7614 349° North  Level Estimated
Thu 09:27:00 PM 37.1485 110.7321 349° North  Level Estimated
Thu 09:28:00 PM 37.2661 110.7028 349° North  Level Estimated
Thu 09:29:00 PM 37.3837 110.6733 349° North  Level Estimated
Thu 09:30:00 PM 37.5013 110.6438 349° North  Level Estimated
Thu 09:31:00 PM 37.6189 110.6142 349° North  Level Estimated
Thu 09:32:00 PM 37.7365 110.5844 349° North  Level Estimated
Thu 09:33:00 PM 37.8541 110.5546 349° North  Level Estimated
Thu 09:34:00 PM 37.9716 110.5247 349° North  Level Estimated
Thu 09:35:00 PM 38.0892 110.4947 349° North  Level Estimated
Thu 09:36:00 PM 38.2068 110.4646 349° North  Level Estimated
Thu 09:37:00 PM 38.3243 110.4344 349° North  Level Estimated
Thu 09:38:00 PM 38.4419 110.4041 349° North  Level Estimated
Thu 09:39:00 PM 38.5594 110.3737 349° North  Level Estimated
Thu 09:40:00 PM 38.6769 110.3432 349° North  Level Estimated
Thu 09:41:00 PM 38.7944 110.3126 349° North  Level Estimated
Thu 09:42:00 PM 38.9120 110.2819 349° North  Level Estimated
Thu 09:43:00 PM 39.0295 110.2511 348° North  Level Estimated
Thu 09:44:00 PM 39.1470 110.2202 348° North  Level Estimated
Thu 09:45:00 PM 39.2645 110.1892 348° North  Level Estimated
Thu 09:46:00 PM 39.3819 110.1580 348° North  Level Estimated
Thu 09:47:00 PM 39.4994 110.1268 348° North  Level Estimated
Thu 09:48:00 PM 39.6169 110.0955 348° North  Level Estimated
Thu 09:49:00 PM 39.7343 110.0641 348° North  Level Estimated
Thu 09:50:00 PM 39.8500 110.0330 348° North  Level Estimated
Thu 09:51:00 PM 39.8500 110.0330 North  Level Estimated
Thu 09:52:00 PM 39.8500 110.0330 North  Level Estimated
Thu 09:53:00 PM 39.8500 110.0330 North  Level Estimated
Thu 09:54:00 PM 39.8500 110.0330 North  Level Estimated
Thu 09:55:00 PM 39.8500 110.0330 North  Level Estimated
Thu 09:56:00 PM 39.8500 110.0330 North  Level Estimated
Thu 09:57:00 PM 39.8500 110.0330 North  Level Estimated
Thu 09:58:00 PM 39.8500 110.0330 North  Level Estimated
Thu 09:59:00 PM 39.8500 110.0330 North  Level Estimated
Thu 10:00:00 PM 39.8500 110.0330 North  Level Estimated
Thu 10:01:00 PM 39.8500 110.0330 North  Level Estimated
Thu 10:02:00 PM 39.8500 110.0330 North  Level Estimated
Thu 10:03:00 PM 39.8500 110.0330 North  Level Estimated
Thu 10:04:00 PM 39.8500 110.0330 North  Level Estimated
Thu 10:05:00 PM 39.8500 110.0330 North  Level Estimated
Thu 10:06:00 PM 39.8500 110.0330 North  Level Estimated

Login

Don't have an account? Register now (free) for customized features, flight alerts, and more!